sensor_id;sensor_type;location;lat;lon;timestamp;P1;durP1;ratioP1;P2;durP2;ratioP2
13927;SDS011;7036;50.834;4.718;2022-09-09T00:01:38;2.57;;;0.60;;
13927;SDS011;7036;50.834;4.718;2022-09-09T00:04:13;1.77;;;0.70;;
13927;SDS011;7036;50.834;4.718;2022-09-09T00:07:05;2.07;;;0.80;;
13927;SDS011;7036;50.834;4.718;2022-09-09T00:09:46;1.63;;;0.80;;
13927;SDS011;7036;50.834;4.718;2022-09-09T00:12:17;0.67;;;0.60;;
13927;SDS011;7036;50.834;4.718;2022-09-09T00:14:52;1.47;;;0.50;;
13927;SDS011;7036;50.834;4.718;2022-09-09T00:17:35;1.07;;;0.70;;
13927;SDS011;7036;50.834;4.718;2022-09-09T00:20:05;1.73;;;0.70;;
13927;SDS011;7036;50.834;4.718;2022-09-09T00:22:30;0.83;;;0.53;;
13927;SDS011;7036;50.834;4.718;2022-09-09T00:25:08;1.00;;;0.80;;
13927;SDS011;7036;50.834;4.718;2022-09-09T00:27:37;1.20;;;0.80;;
13927;SDS011;7036;50.834;4.718;2022-09-09T00:30:21;0.90;;;0.70;;
13927;SDS011;7036;50.834;4.718;2022-09-09T00:32:44;0.90;;;0.53;;
13927;SDS011;7036;50.834;4.718;2022-09-09T00:35:33;0.60;;;0.60;;
13927;SDS011;7036;50.834;4.718;2022-09-09T00:37:44;1.60;;;0.80;;
13927;SDS011;7036;50.834;4.718;2022-09-09T00:43:40;1.13;;;0.60;;
13927;SDS011;7036;50.834;4.718;2022-09-09T00:45:44;1.40;;;0.77;;
13927;SDS011;7036;50.834;4.718;2022-09-09T00:48:09;0.97;;;0.53;;
13927;SDS011;7036;50.834;4.718;2022-09-09T00:55:54;1.23;;;0.80;;
13927;SDS011;7036;50.834;4.718;2022-09-09T00:58:17;0.73;;;0.60;;
13927;SDS011;7036;50.834;4.718;2022-09-09T01:00:46;0.97;;;0.60;;
13927;SDS011;7036;50.834;4.718;2022-09-09T01:11:00;0.77;;;0.50;;
13927;SDS011;7036;50.834;4.718;2022-09-09T01:13:33;1.47;;;0.70;;
13927;SDS011;7036;50.834;4.718;2022-09-09T01:16:01;1.00;;;0.70;;
13927;SDS011;7036;50.834;4.718;2022-09-09T01:18:33;1.10;;;0.50;;
13927;SDS011;7036;50.834;4.718;2022-09-09T01:23:47;1.23;;;0.63;;
13927;SDS011;7036;50.834;4.718;2022-09-09T01:26:40;1.40;;;0.83;;
13927;SDS011;7036;50.834;4.718;2022-09-09T01:29:09;0.73;;;0.60;;
13927;SDS011;7036;50.834;4.718;2022-09-09T01:31:36;2.27;;;0.73;;
13927;SDS011;7036;50.834;4.718;2022-09-09T01:34:11;0.73;;;0.50;;
13927;SDS011;7036;50.834;4.718;2022-09-09T01:36:44;1.67;;;0.57;;
13927;SDS011;7036;50.834;4.718;2022-09-09T01:39:12;2.23;;;0.57;;
13927;SDS011;7036;50.834;4.718;2022-09-09T01:41:39;0.77;;;0.60;;
13927;SDS011;7036;50.834;4.718;2022-09-09T01:44:06;1.07;;;0.67;;
13927;SDS011;7036;50.834;4.718;2022-09-09T01:46:33;1.10;;;0.60;;
13927;SDS011;7036;50.834;4.718;2022-09-09T01:49:00;1.27;;;0.50;;
13927;SDS011;7036;50.834;4.718;2022-09-09T01:51:27;2.30;;;0.67;;
13927;SDS011;7036;50.834;4.718;2022-09-09T01:53:55;0.97;;;0.60;;
13927;SDS011;7036;50.834;4.718;2022-09-09T01:56:25;3.37;;;0.63;;
13927;SDS011;7036;50.834;4.718;2022-09-09T01:59:09;1.93;;;0.70;;
13927;SDS011;7036;50.834;4.718;2022-09-09T02:06:46;0.93;;;0.60;;
13927;SDS011;7036;50.834;4.718;2022-09-09T02:09:13;1.30;;;0.67;;
13927;SDS011;7036;50.834;4.718;2022-09-09T02:11:40;1.63;;;0.80;;
13927;SDS011;7036;50.834;4.718;2022-09-09T02:16:37;0.63;;;0.63;;
13927;SDS011;7036;50.834;4.718;2022-09-09T02:19:18;2.40;;;0.70;;
13927;SDS011;7036;50.834;4.718;2022-09-09T02:21:44;0.97;;;0.57;;
13927;SDS011;7036;50.834;4.718;2022-09-09T02:24:11;1.67;;;0.80;;
13927;SDS011;7036;50.834;4.718;2022-09-09T02:26:39;2.17;;;0.60;;
13927;SDS011;7036;50.834;4.718;2022-09-09T02:29:07;0.87;;;0.70;;
13927;SDS011;7036;50.834;4.718;2022-09-09T02:31:32;1.87;;;1.00;;
13927;SDS011;7036;50.834;4.718;2022-09-09T02:33:59;1.53;;;0.53;;
13927;SDS011;7036;50.834;4.718;2022-09-09T02:36:26;0.47;;;0.40;;
13927;SDS011;7036;50.834;4.718;2022-09-09T02:38:52;1.30;;;0.73;;
13927;SDS011;7036;50.834;4.718;2022-09-09T02:41:20;1.90;;;0.57;;
13927;SDS011;7036;50.834;4.718;2022-09-09T02:43:46;1.10;;;0.70;;
13927;SDS011;7036;50.834;4.718;2022-09-09T02:54:28;1.47;;;0.60;;
13927;SDS011;7036;50.834;4.718;2022-09-09T02:56:55;1.30;;;0.40;;
13927;SDS011;7036;50.834;4.718;2022-09-09T02:59:22;1.70;;;0.60;;
13927;SDS011;7036;50.834;4.718;2022-09-09T03:01:48;0.73;;;0.60;;
13927;SDS011;7036;50.834;4.718;2022-09-09T03:04:16;1.23;;;0.60;;
13927;SDS011;7036;50.834;4.718;2022-09-09T03:06:43;1.67;;;0.60;;
13927;SDS011;7036;50.834;4.718;2022-09-09T03:09:10;1.23;;;0.63;;
13927;SDS011;7036;50.834;4.718;2022-09-09T03:11:36;1.40;;;0.87;;
13927;SDS011;7036;50.834;4.718;2022-09-09T03:14:04;0.97;;;0.60;;
13927;SDS011;7036;50.834;4.718;2022-09-09T03:16:30;1.33;;;0.60;;
13927;SDS011;7036;50.834;4.718;2022-09-09T03:18:57;3.03;;;0.80;;
13927;SDS011;7036;50.834;4.718;2022-09-09T03:21:24;2.30;;;1.00;;
13927;SDS011;7036;50.834;4.718;2022-09-09T03:23:51;2.83;;;0.60;;
13927;SDS011;7036;50.834;4.718;2022-09-09T03:26:18;1.20;;;0.57;;
13927;SDS011;7036;50.834;4.718;2022-09-09T03:28:45;0.90;;;0.77;;
13927;SDS011;7036;50.834;4.718;2022-09-09T03:31:12;1.60;;;0.70;;
13927;SDS011;7036;50.834;4.718;2022-09-09T03:33:39;1.50;;;0.67;;
13927;SDS011;7036;50.834;4.718;2022-09-09T03:36:05;1.80;;;0.57;;
13927;SDS011;7036;50.834;4.718;2022-09-09T03:38:32;1.33;;;0.50;;
13927;SDS011;7036;50.834;4.718;2022-09-09T03:40:59;0.60;;;0.60;;
13927;SDS011;7036;50.834;4.718;2022-09-09T03:43:26;1.10;;;0.67;;
13927;SDS011;7036;50.834;4.718;2022-09-09T03:45:53;2.57;;;0.77;;
13927;SDS011;7036;50.834;4.718;2022-09-09T03:48:20;0.93;;;0.70;;
13927;SDS011;7036;50.834;4.718;2022-09-09T03:50:48;0.73;;;0.47;;
13927;SDS011;7036;50.834;4.718;2022-09-09T03:53:14;0.40;;;0.40;;
13927;SDS011;7036;50.834;4.718;2022-09-09T03:55:47;1.27;;;0.70;;
13927;SDS011;7036;50.834;4.718;2022-09-09T03:58:13;1.43;;;0.70;;
13927;SDS011;7036;50.834;4.718;2022-09-09T04:00:40;1.83;;;0.67;;
13927;SDS011;7036;50.834;4.718;2022-09-09T04:03:07;0.83;;;0.63;;
13927;SDS011;7036;50.834;4.718;2022-09-09T04:05:34;0.90;;;0.77;;
13927;SDS011;7036;50.834;4.718;2022-09-09T04:08:01;2.43;;;0.60;;
13927;SDS011;7036;50.834;4.718;2022-09-09T04:10:28;1.03;;;0.90;;
13927;SDS011;7036;50.834;4.718;2022-09-09T04:12:54;1.73;;;0.70;;
13927;SDS011;7036;50.834;4.718;2022-09-09T04:15:22;1.17;;;0.87;;
13927;SDS011;7036;50.834;4.718;2022-09-09T04:17:49;1.67;;;0.53;;
13927;SDS011;7036;50.834;4.718;2022-09-09T04:20:16;3.03;;;0.90;;
13927;SDS011;7036;50.834;4.718;2022-09-09T04:22:43;2.40;;;0.70;;
13927;SDS011;7036;50.834;4.718;2022-09-09T04:25:10;1.70;;;0.87;;
13927;SDS011;7036;50.834;4.718;2022-09-09T04:27:36;2.13;;;0.63;;
13927;SDS011;7036;50.834;4.718;2022-09-09T04:30:03;0.97;;;0.53;;
13927;SDS011;7036;50.834;4.718;2022-09-09T04:32:32;1.67;;;0.90;;
13927;SDS011;7036;50.834;4.718;2022-09-09T04:34:57;1.57;;;0.77;;
13927;SDS011;7036;50.834;4.718;2022-09-09T04:37:24;0.83;;;0.60;;
13927;SDS011;7036;50.834;4.718;2022-09-09T04:39:51;1.90;;;0.63;;
13927;SDS011;7036;50.834;4.718;2022-09-09T04:42:18;2.20;;;0.77;;
13927;SDS011;7036;50.834;4.718;2022-09-09T04:44:45;1.70;;;0.60;;
13927;SDS011;7036;50.834;4.718;2022-09-09T04:47:12;3.10;;;0.90;;
13927;SDS011;7036;50.834;4.718;2022-09-09T04:49:39;1.53;;;0.60;;
13927;SDS011;7036;50.834;4.718;2022-09-09T04:52:06;1.40;;;0.60;;
13927;SDS011;7036;50.834;4.718;2022-09-09T04:54:32;2.53;;;0.83;;
13927;SDS011;7036;50.834;4.718;2022-09-09T04:56:59;2.53;;;0.93;;
13927;SDS011;7036;50.834;4.718;2022-09-09T04:59:26;1.60;;;0.83;;
13927;SDS011;7036;50.834;4.718;2022-09-09T05:01:53;1.77;;;0.90;;
13927;SDS011;7036;50.834;4.718;2022-09-09T05:04:21;2.20;;;0.90;;
13927;SDS011;7036;50.834;4.718;2022-09-09T05:06:47;1.77;;;0.77;;
13927;SDS011;7036;50.834;4.718;2022-09-09T05:09:14;1.67;;;0.90;;
13927;SDS011;7036;50.834;4.718;2022-09-09T05:11:41;1.37;;;0.63;;
13927;SDS011;7036;50.834;4.718;2022-09-09T05:14:08;1.00;;;0.53;;
13927;SDS011;7036;50.834;4.718;2022-09-09T05:16:35;2.47;;;1.10;;
13927;SDS011;7036;50.834;4.718;2022-09-09T05:19:02;2.10;;;1.03;;
13927;SDS011;7036;50.834;4.718;2022-09-09T05:21:29;1.60;;;0.80;;
13927;SDS011;7036;50.834;4.718;2022-09-09T05:23:56;1.67;;;0.80;;
13927;SDS011;7036;50.834;4.718;2022-09-09T05:26:23;1.60;;;1.00;;
13927;SDS011;7036;50.834;4.718;2022-09-09T05:28:50;1.43;;;0.70;;
13927;SDS011;7036;50.834;4.718;2022-09-09T05:31:17;1.80;;;0.87;;
13927;SDS011;7036;50.834;4.718;2022-09-09T05:33:44;2.40;;;0.60;;
13927;SDS011;7036;50.834;4.718;2022-09-09T05:36:11;1.83;;;0.70;;
13927;SDS011;7036;50.834;4.718;2022-09-09T05:38:37;1.80;;;0.93;;
13927;SDS011;7036;50.834;4.718;2022-09-09T05:41:05;1.40;;;0.77;;
13927;SDS011;7036;50.834;4.718;2022-09-09T05:43:31;1.73;;;0.90;;
13927;SDS011;7036;50.834;4.718;2022-09-09T05:46:09;0.83;;;0.80;;
13927;SDS011;7036;50.834;4.718;2022-09-09T05:48:32;5.80;;;0.90;;
13927;SDS011;7036;50.834;4.718;2022-09-09T05:50:56;1.37;;;0.83;;
13927;SDS011;7036;50.834;4.718;2022-09-09T05:53:23;2.00;;;1.00;;
13927;SDS011;7036;50.834;4.718;2022-09-09T05:55:50;1.90;;;0.80;;
13927;SDS011;7036;50.834;4.718;2022-09-09T05:58:17;2.20;;;0.80;;
13927;SDS011;7036;50.834;4.718;2022-09-09T06:00:44;1.23;;;0.80;;
13927;SDS011;7036;50.834;4.718;2022-09-09T06:03:11;1.30;;;1.00;;
13927;SDS011;7036;50.834;4.718;2022-09-09T06:05:38;1.83;;;0.93;;
13927;SDS011;7036;50.834;4.718;2022-09-09T06:08:04;1.90;;;0.93;;
13927;SDS011;7036;50.834;4.718;2022-09-09T06:10:31;2.57;;;1.40;;
13927;SDS011;7036;50.834;4.718;2022-09-09T06:12:58;3.87;;;1.50;;
13927;SDS011;7036;50.834;4.718;2022-09-09T06:15:25;3.83;;;1.50;;
13927;SDS011;7036;50.834;4.718;2022-09-09T06:17:55;3.63;;;1.40;;
13927;SDS011;7036;50.834;4.718;2022-09-09T06:20:22;3.00;;;1.27;;
13927;SDS011;7036;50.834;4.718;2022-09-09T06:22:49;9.30;;;1.40;;
13927;SDS011;7036;50.834;4.718;2022-09-09T06:25:16;4.80;;;1.40;;
13927;SDS011;7036;50.834;4.718;2022-09-09T06:27:43;2.73;;;1.20;;
13927;SDS011;7036;50.834;4.718;2022-09-09T06:30:10;4.00;;;1.20;;
13927;SDS011;7036;50.834;4.718;2022-09-09T06:32:37;2.60;;;1.07;;
13927;SDS011;7036;50.834;4.718;2022-09-09T06:35:04;2.20;;;1.10;;
13927;SDS011;7036;50.834;4.718;2022-09-09T06:37:31;2.63;;;1.50;;
13927;SDS011;7036;50.834;4.718;2022-09-09T06:39:58;3.07;;;1.20;;
13927;SDS011;7036;50.834;4.718;2022-09-09T06:42:25;1.93;;;1.30;;
13927;SDS011;7036;50.834;4.718;2022-09-09T06:44:52;2.93;;;1.20;;
13927;SDS011;7036;50.834;4.718;2022-09-09T06:47:19;4.20;;;1.00;;
13927;SDS011;7036;50.834;4.718;2022-09-09T06:49:46;2.93;;;0.80;;
13927;SDS011;7036;50.834;4.718;2022-09-09T06:52:12;4.53;;;1.20;;
13927;SDS011;7036;50.834;4.718;2022-09-09T06:54:39;3.53;;;1.27;;
13927;SDS011;7036;50.834;4.718;2022-09-09T06:57:06;2.60;;;1.53;;
13927;SDS011;7036;50.834;4.718;2022-09-09T06:59:33;6.50;;;2.23;;
13927;SDS011;7036;50.834;4.718;2022-09-09T07:02:00;4.67;;;2.20;;
13927;SDS011;7036;50.834;4.718;2022-09-09T07:04:27;7.20;;;2.47;;
13927;SDS011;7036;50.834;4.718;2022-09-09T07:06:54;8.90;;;4.17;;
13927;SDS011;7036;50.834;4.718;2022-09-09T07:09:21;4.30;;;2.70;;
13927;SDS011;7036;50.834;4.718;2022-09-09T07:11:49;7.00;;;2.87;;
13927;SDS011;7036;50.834;4.718;2022-09-09T07:14:15;8.53;;;3.33;;
13927;SDS011;7036;50.834;4.718;2022-09-09T07:16:42;8.60;;;3.47;;
13927;SDS011;7036;50.834;4.718;2022-09-09T07:19:09;7.97;;;3.47;;
13927;SDS011;7036;50.834;4.718;2022-09-09T07:21:36;9.73;;;2.80;;
13927;SDS011;7036;50.834;4.718;2022-09-09T07:24:03;9.00;;;3.10;;
13927;SDS011;7036;50.834;4.718;2022-09-09T07:26:30;10.37;;;3.63;;
13927;SDS011;7036;50.834;4.718;2022-09-09T07:28:57;8.70;;;3.63;;
13927;SDS011;7036;50.834;4.718;2022-09-09T07:31:30;10.63;;;2.70;;
13927;SDS011;7036;50.834;4.718;2022-09-09T07:33:59;10.53;;;2.37;;
13927;SDS011;7036;50.834;4.718;2022-09-09T07:36:27;11.80;;;2.67;;
13927;SDS011;7036;50.834;4.718;2022-09-09T07:39:00;12.47;;;3.37;;
13927;SDS011;7036;50.834;4.718;2022-09-09T07:41:29;12.27;;;2.87;;
13927;SDS011;7036;50.834;4.718;2022-09-09T07:43:55;12.20;;;3.43;;
13927;SDS011;7036;50.834;4.718;2022-09-09T07:46:23;8.10;;;3.03;;
13927;SDS011;7036;50.834;4.718;2022-09-09T07:48:57;12.60;;;3.27;;
13927;SDS011;7036;50.834;4.718;2022-09-09T07:51:16;6.97;;;2.23;;
13927;SDS011;7036;50.834;4.718;2022-09-09T07:53:43;9.23;;;2.47;;
13927;SDS011;7036;50.834;4.718;2022-09-09T07:56:10;8.63;;;2.80;;
13927;SDS011;7036;50.834;4.718;2022-09-09T07:58:37;5.37;;;2.33;;
13927;SDS011;7036;50.834;4.718;2022-09-09T08:01:10;9.10;;;3.00;;
13927;SDS011;7036;50.834;4.718;2022-09-09T08:03:36;8.10;;;2.73;;
13927;SDS011;7036;50.834;4.718;2022-09-09T08:06:03;6.43;;;2.47;;
13927;SDS011;7036;50.834;4.718;2022-09-09T08:08:30;7.27;;;2.77;;
13927;SDS011;7036;50.834;4.718;2022-09-09T08:11:04;5.60;;;2.10;;
13927;SDS011;7036;50.834;4.718;2022-09-09T08:13:29;5.60;;;2.23;;
13927;SDS011;7036;50.834;4.718;2022-09-09T08:16:03;7.37;;;2.30;;
13927;SDS011;7036;50.834;4.718;2022-09-09T08:18:23;7.77;;;2.93;;
13927;SDS011;7036;50.834;4.718;2022-09-09T08:20:50;6.10;;;2.13;;
13927;SDS011;7036;50.834;4.718;2022-09-09T08:23:20;10.88;;;3.53;;
13927;SDS011;7036;50.834;4.718;2022-09-09T08:25:45;16.03;;;3.10;;
13927;SDS011;7036;50.834;4.718;2022-09-09T08:28:12;10.60;;;3.17;;
13927;SDS011;7036;50.834;4.718;2022-09-09T08:30:39;12.13;;;3.47;;
13927;SDS011;7036;50.834;4.718;2022-09-09T08:33:06;11.60;;;3.23;;
13927;SDS011;7036;50.834;4.718;2022-09-09T08:35:32;9.23;;;3.53;;
13927;SDS011;7036;50.834;4.718;2022-09-09T08:37:59;8.17;;;3.00;;
13927;SDS011;7036;50.834;4.718;2022-09-09T08:40:28;8.10;;;2.80;;
13927;SDS011;7036;50.834;4.718;2022-09-09T08:42:53;5.50;;;2.93;;
13927;SDS011;7036;50.834;4.718;2022-09-09T08:45:34;9.47;;;3.23;;
13927;SDS011;7036;50.834;4.718;2022-09-09T08:50:38;8.90;;;3.10;;
13927;SDS011;7036;50.834;4.718;2022-09-09T08:53:05;8.80;;;2.70;;
13927;SDS011;7036;50.834;4.718;2022-09-09T08:58:19;8.77;;;3.07;;
13927;SDS011;7036;50.834;4.718;2022-09-09T09:01:05;8.53;;;3.10;;
13927;SDS011;7036;50.834;4.718;2022-09-09T09:03:58;14.87;;;3.07;;
13927;SDS011;7036;50.834;4.718;2022-09-09T09:09:05;5.57;;;2.70;;
13927;SDS011;7036;50.834;4.718;2022-09-09T09:11:49;7.63;;;2.73;;
13927;SDS011;7036;50.834;4.718;2022-09-09T09:14:23;6.70;;;3.20;;
13927;SDS011;7036;50.834;4.718;2022-09-09T09:19:20;6.87;;;2.53;;
13927;SDS011;7036;50.834;4.718;2022-09-09T09:21:59;9.27;;;3.10;;
13927;SDS011;7036;50.834;4.718;2022-09-09T09:25:16;9.23;;;2.87;;
13927;SDS011;7036;50.834;4.718;2022-09-09T09:27:15;10.37;;;3.07;;
13927;SDS011;7036;50.834;4.718;2022-09-09T09:29:39;8.97;;;2.23;;
13927;SDS011;7036;50.834;4.718;2022-09-09T09:32:07;7.43;;;2.30;;
13927;SDS011;7036;50.834;4.718;2022-09-09T09:34:33;6.57;;;2.50;;
13927;SDS011;7036;50.834;4.718;2022-09-09T09:37:00;16.00;;;3.00;;
13927;SDS011;7036;50.834;4.718;2022-09-09T09:39:28;12.43;;;2.83;;
13927;SDS011;7036;50.834;4.718;2022-09-09T09:41:54;4.13;;;2.43;;
13927;SDS011;7036;50.834;4.718;2022-09-09T09:44:25;11.17;;;2.77;;
13927;SDS011;7036;50.834;4.718;2022-09-09T09:46:51;7.27;;;2.97;;
13927;SDS011;7036;50.834;4.718;2022-09-09T09:49:17;8.40;;;2.33;;
13927;SDS011;7036;50.834;4.718;2022-09-09T09:51:44;7.37;;;2.73;;
13927;SDS011;7036;50.834;4.718;2022-09-09T09:56:47;5.83;;;2.27;;
13927;SDS011;7036;50.834;4.718;2022-09-09T09:59:32;8.53;;;2.40;;
13927;SDS011;7036;50.834;4.718;2022-09-09T10:01:50;5.90;;;2.20;;
13927;SDS011;7036;50.834;4.718;2022-09-09T10:04:19;6.00;;;2.40;;
13927;SDS011;7036;50.834;4.718;2022-09-09T10:06:44;7.07;;;2.23;;
13927;SDS011;7036;50.834;4.718;2022-09-09T10:09:29;6.33;;;2.63;;
13927;SDS011;7036;50.834;4.718;2022-09-09T10:12:08;4.87;;;2.43;;
13927;SDS011;7036;50.834;4.718;2022-09-09T10:14:38;6.43;;;2.60;;
13927;SDS011;7036;50.834;4.718;2022-09-09T10:17:05;5.63;;;2.10;;
13927;SDS011;7036;50.834;4.718;2022-09-09T10:19:32;5.93;;;1.90;;
13927;SDS011;7036;50.834;4.718;2022-09-09T10:22:05;5.93;;;2.30;;
13927;SDS011;7036;50.834;4.718;2022-09-09T10:30:24;5.10;;;2.17;;
13927;SDS011;7036;50.834;4.718;2022-09-09T10:32:51;7.97;;;2.20;;
13927;SDS011;7036;50.834;4.718;2022-09-09T10:38:12;4.43;;;1.73;;
13927;SDS011;7036;50.834;4.718;2022-09-09T10:43:23;3.03;;;1.90;;
13927;SDS011;7036;50.834;4.718;2022-09-09T10:48:25;6.60;;;1.80;;
13927;SDS011;7036;50.834;4.718;2022-09-09T10:51:00;4.07;;;1.77;;
13927;SDS011;7036;50.834;4.718;2022-09-09T10:53:57;3.27;;;1.47;;
13927;SDS011;7036;50.834;4.718;2022-09-09T10:56:17;4.83;;;1.77;;
13927;SDS011;7036;50.834;4.718;2022-09-09T10:58:46;4.30;;;1.40;;
13927;SDS011;7036;50.834;4.718;2022-09-09T11:04:01;5.37;;;2.07;;
13927;SDS011;7036;50.834;4.718;2022-09-09T11:06:25;3.30;;;1.67;;
13927;SDS011;7036;50.834;4.718;2022-09-09T11:08:50;4.40;;;1.87;;
13927;SDS011;7036;50.834;4.718;2022-09-09T11:11:29;5.00;;;2.00;;
13927;SDS011;7036;50.834;4.718;2022-09-09T11:13:55;4.37;;;2.37;;
13927;SDS011;7036;50.834;4.718;2022-09-09T11:16:31;2.93;;;1.33;;
13927;SDS011;7036;50.834;4.718;2022-09-09T11:21:47;6.53;;;2.10;;
13927;SDS011;7036;50.834;4.718;2022-09-09T11:24:16;2.30;;;1.50;;
13927;SDS011;7036;50.834;4.718;2022-09-09T11:26:42;5.07;;;2.30;;
13927;SDS011;7036;50.834;4.718;2022-09-09T11:32:25;4.33;;;1.50;;
13927;SDS011;7036;50.834;4.718;2022-09-09T11:40:24;4.70;;;1.87;;
13927;SDS011;7036;50.834;4.718;2022-09-09T11:43:00;3.97;;;2.20;;
13927;SDS011;7036;50.834;4.718;2022-09-09T11:45:26;4.33;;;1.63;;
13927;SDS011;7036;50.834;4.718;2022-09-09T11:47:54;4.50;;;2.17;;
13927;SDS011;7036;50.834;4.718;2022-09-09T11:52:47;5.63;;;2.30;;
13927;SDS011;7036;50.834;4.718;2022-09-09T11:58:05;3.90;;;1.80;;
13927;SDS011;7036;50.834;4.718;2022-09-09T12:00:38;4.67;;;2.10;;
13927;SDS011;7036;50.834;4.718;2022-09-09T12:03:04;7.93;;;2.30;;
13927;SDS011;7036;50.834;4.718;2022-09-09T12:05:41;4.90;;;1.93;;
13927;SDS011;7036;50.834;4.718;2022-09-09T12:08:09;6.27;;;1.77;;
13927;SDS011;7036;50.834;4.718;2022-09-09T12:10:35;6.30;;;2.03;;
13927;SDS011;7036;50.834;4.718;2022-09-09T12:13:17;5.13;;;1.63;;
13927;SDS011;7036;50.834;4.718;2022-09-09T12:15:47;3.97;;;1.67;;
13927;SDS011;7036;50.834;4.718;2022-09-09T12:18:14;5.53;;;2.13;;
13927;SDS011;7036;50.834;4.718;2022-09-09T12:20:39;4.93;;;1.97;;
13927;SDS011;7036;50.834;4.718;2022-09-09T12:25:48;4.60;;;1.73;;
13927;SDS011;7036;50.834;4.718;2022-09-09T12:31:05;5.03;;;1.80;;
13927;SDS011;7036;50.834;4.718;2022-09-09T12:33:36;8.77;;;2.50;;
13927;SDS011;7036;50.834;4.718;2022-09-09T12:36:02;3.93;;;1.70;;
13927;SDS011;7036;50.834;4.718;2022-09-09T12:38:36;5.77;;;1.67;;
13927;SDS011;7036;50.834;4.718;2022-09-09T12:41:01;6.13;;;1.87;;
13927;SDS011;7036;50.834;4.718;2022-09-09T12:43:28;8.37;;;1.53;;
13927;SDS011;7036;50.834;4.718;2022-09-09T12:46:02;6.73;;;1.80;;
13927;SDS011;7036;50.834;4.718;2022-09-09T12:48:29;4.47;;;2.13;;
13927;SDS011;7036;50.834;4.718;2022-09-09T12:50:55;6.17;;;1.60;;
13927;SDS011;7036;50.834;4.718;2022-09-09T12:53:22;3.07;;;1.30;;
13927;SDS011;7036;50.834;4.718;2022-09-09T12:55:50;3.60;;;1.87;;
13927;SDS011;7036;50.834;4.718;2022-09-09T12:58:16;4.80;;;1.60;;
13927;SDS011;7036;50.834;4.718;2022-09-09T13:00:48;3.47;;;1.80;;
13927;SDS011;7036;50.834;4.718;2022-09-09T13:03:19;3.50;;;1.87;;
13927;SDS011;7036;50.834;4.718;2022-09-09T13:05:45;3.93;;;1.20;;
13927;SDS011;7036;50.834;4.718;2022-09-09T13:08:13;3.43;;;1.47;;
13927;SDS011;7036;50.834;4.718;2022-09-09T13:13:28;2.87;;;1.57;;
13927;SDS011;7036;50.834;4.718;2022-09-09T13:15:58;2.77;;;1.60;;
13927;SDS011;7036;50.834;4.718;2022-09-09T13:18:27;3.43;;;1.50;;
13927;SDS011;7036;50.834;4.718;2022-09-09T13:20:51;3.17;;;1.40;;
13927;SDS011;7036;50.834;4.718;2022-09-09T13:23:18;2.40;;;1.40;;
13927;SDS011;7036;50.834;4.718;2022-09-09T13:25:54;4.43;;;1.63;;
13927;SDS011;7036;50.834;4.718;2022-09-09T13:28:22;2.57;;;1.70;;
13927;SDS011;7036;50.834;4.718;2022-09-09T13:31:04;3.53;;;1.27;;
13927;SDS011;7036;50.834;4.718;2022-09-09T13:33:31;6.57;;;2.03;;
13927;SDS011;7036;50.834;4.718;2022-09-09T13:35:57;2.07;;;1.20;;
13927;SDS011;7036;50.834;4.718;2022-09-09T13:38:23;3.73;;;1.60;;
13927;SDS011;7036;50.834;4.718;2022-09-09T13:40:54;4.23;;;1.50;;
13927;SDS011;7036;50.834;4.718;2022-09-09T13:43:26;2.20;;;1.00;;
13927;SDS011;7036;50.834;4.718;2022-09-09T13:45:53;5.73;;;1.97;;
13927;SDS011;7036;50.834;4.718;2022-09-09T13:48:22;3.97;;;1.60;;
13927;SDS011;7036;50.834;4.718;2022-09-09T13:50:56;2.27;;;1.20;;
13927;SDS011;7036;50.834;4.718;2022-09-09T13:53:21;2.50;;;1.03;;
13927;SDS011;7036;50.834;4.718;2022-09-09T13:55:48;2.87;;;1.27;;
13927;SDS011;7036;50.834;4.718;2022-09-09T13:58:16;4.90;;;1.63;;
13927;SDS011;7036;50.834;4.718;2022-09-09T14:00:42;3.33;;;1.47;;
13927;SDS011;7036;50.834;4.718;2022-09-09T14:03:09;4.43;;;1.33;;
13927;SDS011;7036;50.834;4.718;2022-09-09T14:05:36;3.60;;;1.17;;
13927;SDS011;7036;50.834;4.718;2022-09-09T14:08:04;4.00;;;1.43;;
13927;SDS011;7036;50.834;4.718;2022-09-09T14:10:30;5.73;;;1.63;;
13927;SDS011;7036;50.834;4.718;2022-09-09T14:12:57;2.63;;;1.20;;
13927;SDS011;7036;50.834;4.718;2022-09-09T14:15:24;4.40;;;1.63;;
13927;SDS011;7036;50.834;4.718;2022-09-09T14:17:51;3.97;;;1.70;;
13927;SDS011;7036;50.834;4.718;2022-09-09T14:20:18;5.13;;;1.97;;
13927;SDS011;7036;50.834;4.718;2022-09-09T14:22:45;4.13;;;1.80;;
13927;SDS011;7036;50.834;4.718;2022-09-09T14:25:12;5.07;;;1.30;;
13927;SDS011;7036;50.834;4.718;2022-09-09T14:27:41;2.57;;;1.60;;
13927;SDS011;7036;50.834;4.718;2022-09-09T14:30:08;4.57;;;1.37;;
13927;SDS011;7036;50.834;4.718;2022-09-09T14:32:35;4.23;;;1.30;;
13927;SDS011;7036;50.834;4.718;2022-09-09T14:35:02;3.30;;;1.20;;
13927;SDS011;7036;50.834;4.718;2022-09-09T14:37:29;3.67;;;1.43;;
13927;SDS011;7036;50.834;4.718;2022-09-09T14:39:56;4.43;;;1.37;;
13927;SDS011;7036;50.834;4.718;2022-09-09T14:42:23;3.47;;;1.43;;
13927;SDS011;7036;50.834;4.718;2022-09-09T14:44:50;7.03;;;1.63;;
13927;SDS011;7036;50.834;4.718;2022-09-09T14:47:17;3.50;;;1.23;;
13927;SDS011;7036;50.834;4.718;2022-09-09T14:49:44;3.70;;;1.20;;
13927;SDS011;7036;50.834;4.718;2022-09-09T14:52:10;4.50;;;1.40;;
13927;SDS011;7036;50.834;4.718;2022-09-09T14:54:37;3.37;;;1.17;;
13927;SDS011;7036;50.834;4.718;2022-09-09T14:57:04;1.63;;;1.13;;
13927;SDS011;7036;50.834;4.718;2022-09-09T14:59:31;3.60;;;1.20;;
13927;SDS011;7036;50.834;4.718;2022-09-09T15:01:58;2.00;;;1.17;;
13927;SDS011;7036;50.834;4.718;2022-09-09T15:04:25;4.47;;;1.23;;
13927;SDS011;7036;50.834;4.718;2022-09-09T15:06:52;3.57;;;1.07;;
13927;SDS011;7036;50.834;4.718;2022-09-09T15:09:19;2.40;;;1.20;;
13927;SDS011;7036;50.834;4.718;2022-09-09T15:11:46;2.30;;;1.20;;
13927;SDS011;7036;50.834;4.718;2022-09-09T15:14:13;2.87;;;1.10;;
13927;SDS011;7036;50.834;4.718;2022-09-09T15:16:40;2.97;;;1.00;;
13927;SDS011;7036;50.834;4.718;2022-09-09T15:19:07;3.50;;;1.50;;
13927;SDS011;7036;50.834;4.718;2022-09-09T15:21:35;6.27;;;1.50;;
13927;SDS011;7036;50.834;4.718;2022-09-09T15:24:02;2.13;;;1.20;;
13927;SDS011;7036;50.834;4.718;2022-09-09T15:26:28;2.97;;;1.43;;
13927;SDS011;7036;50.834;4.718;2022-09-09T15:28:55;3.43;;;1.20;;
13927;SDS011;7036;50.834;4.718;2022-09-09T15:31:23;1.70;;;0.90;;
13927;SDS011;7036;50.834;4.718;2022-09-09T15:33:50;3.97;;;1.20;;
13927;SDS011;7036;50.834;4.718;2022-09-09T15:36:17;3.13;;;1.43;;
13927;SDS011;7036;50.834;4.718;2022-09-09T15:38:46;4.87;;;1.10;;
13927;SDS011;7036;50.834;4.718;2022-09-09T15:41:13;3.03;;;0.97;;
13927;SDS011;7036;50.834;4.718;2022-09-09T15:43:43;3.63;;;1.20;;
13927;SDS011;7036;50.834;4.718;2022-09-09T15:48:47;2.10;;;1.00;;
13927;SDS011;7036;50.834;4.718;2022-09-09T15:51:14;3.10;;;1.37;;
13927;SDS011;7036;50.834;4.718;2022-09-09T15:53:41;2.10;;;1.17;;
13927;SDS011;7036;50.834;4.718;2022-09-09T15:56:08;2.90;;;1.17;;
13927;SDS011;7036;50.834;4.718;2022-09-09T15:58:35;3.60;;;1.00;;
13927;SDS011;7036;50.834;4.718;2022-09-09T16:01:05;8.03;;;1.07;;
13927;SDS011;7036;50.834;4.718;2022-09-09T16:03:38;2.67;;;1.33;;
13927;SDS011;7036;50.834;4.718;2022-09-09T16:06:04;2.40;;;1.13;;
13927;SDS011;7036;50.834;4.718;2022-09-09T16:08:32;1.63;;;1.00;;
13927;SDS011;7036;50.834;4.718;2022-09-09T16:11:20;2.73;;;0.90;;
13927;SDS011;7036;50.834;4.718;2022-09-09T16:13:32;2.73;;;1.13;;
13927;SDS011;7036;50.834;4.718;2022-09-09T16:16:00;3.67;;;1.43;;
13927;SDS011;7036;50.834;4.718;2022-09-09T16:18:32;1.73;;;1.03;;
13927;SDS011;7036;50.834;4.718;2022-09-09T16:20:54;4.30;;;1.40;;
13927;SDS011;7036;50.834;4.718;2022-09-09T16:23:20;3.37;;;1.17;;
13927;SDS011;7036;50.834;4.718;2022-09-09T16:25:54;3.53;;;1.20;;
13927;SDS011;7036;50.834;4.718;2022-09-09T16:28:23;3.17;;;1.17;;
13927;SDS011;7036;50.834;4.718;2022-09-09T16:30:50;4.23;;;1.70;;
13927;SDS011;7036;50.834;4.718;2022-09-09T16:33:17;1.17;;;1.07;;
13927;SDS011;7036;50.834;4.718;2022-09-09T16:35:44;6.87;;;1.47;;
13927;SDS011;7036;50.834;4.718;2022-09-09T16:38:11;3.63;;;1.00;;
13927;SDS011;7036;50.834;4.718;2022-09-09T16:40:38;3.20;;;1.20;;